createdAt,value
2024-04-23T00:00:44.347Z,4.00
2024-04-23T00:01:44.373Z,4.50
2024-04-23T00:02:44.407Z,5.00
2024-04-23T00:03:44.322Z,4.90
2024-04-23T00:04:44.337Z,5.20
2024-04-23T00:05:44.278Z,5.20
2024-04-23T00:06:44.267Z,4.60
2024-04-23T00:07:44.307Z,4.30
2024-04-23T00:08:44.261Z,4.20
2024-04-23T00:09:44.261Z,4.10
2024-04-23T00:10:44.270Z,4.20
2024-04-23T00:11:44.254Z,4.20
2024-04-23T00:12:44.244Z,4.00
2024-04-23T00:13:44.227Z,4.40
2024-04-23T00:14:44.198Z,4.30
2024-04-23T00:15:44.181Z,4.40
2024-04-23T00:16:44.196Z,4.70
2024-04-23T00:17:44.294Z,4.60
2024-04-23T00:18:44.201Z,4.70
2024-04-23T00:19:44.198Z,4.80
2024-04-23T00:20:44.143Z,4.60
2024-04-23T00:21:44.130Z,4.70
2024-04-23T00:22:44.185Z,4.60
2024-04-23T00:23:44.111Z,4.70
2024-04-23T00:24:44.082Z,4.40
2024-04-23T00:25:44.097Z,4.40
2024-04-23T00:26:44.075Z,4.20
2024-04-23T00:27:44.051Z,4.70
2024-04-23T00:28:44.084Z,4.70
2024-04-23T00:29:44.030Z,4.80
2024-04-23T00:30:44.048Z,4.70
2024-04-23T00:31:44.063Z,4.20
2024-04-23T00:32:44.052Z,4.50
2024-04-23T00:33:43.999Z,4.20
2024-04-23T00:34:44.032Z,4.30
2024-04-23T00:35:43.980Z,4.00
2024-04-23T00:36:43.970Z,4.30
2024-04-23T00:37:43.973Z,3.90
2024-04-23T00:38:43.998Z,4.20
2024-04-23T00:39:43.939Z,4.10
2024-04-23T00:40:44.046Z,4.00
2024-04-23T00:41:43.911Z,4.00
2024-04-23T00:42:43.911Z,4.40
2024-04-23T00:43:43.954Z,3.90
2024-04-23T00:44:43.899Z,4.70
2024-04-23T00:45:43.908Z,4.10
2024-04-23T00:46:43.917Z,3.50
2024-04-23T00:47:43.950Z,3.70
2024-04-23T00:48:43.853Z,4.40
2024-04-23T00:49:43.939Z,4.20
2024-04-23T00:50:43.816Z,3.90
2024-04-23T00:51:43.804Z,4.00
2024-04-23T00:52:43.803Z,4.00
2024-04-23T00:53:43.832Z,3.90
2024-04-23T00:54:43.793Z,4.00
2024-04-23T00:55:43.823Z,3.90
2024-04-23T00:56:43.760Z,4.20
2024-04-23T00:57:43.750Z,3.50
2024-04-23T00:58:44.000Z,4.10
2024-04-23T00:59:43.747Z,4.50
2024-04-23T01:00:43.735Z,4.60
2024-04-23T01:01:43.755Z,4.60
2024-04-23T01:02:43.756Z,4.60
2024-04-23T01:03:43.743Z,5.20
2024-04-23T01:04:43.693Z,4.60
2024-04-23T01:05:43.677Z,4.20
2024-04-23T01:06:43.650Z,4.10
2024-04-23T01:07:43.677Z,3.90
2024-04-23T01:08:43.653Z,4.40
2024-04-23T01:09:43.641Z,4.10
2024-04-23T01:10:43.662Z,3.70
2024-04-23T01:11:43.631Z,4.20
2024-04-23T01:12:43.594Z,4.50
2024-04-23T01:13:43.634Z,4.20
2024-04-23T01:14:43.581Z,4.50
2024-04-23T01:15:43.579Z,4.40
2024-04-23T01:16:43.582Z,4.20
2024-04-23T01:17:43.616Z,4.10
2024-04-23T01:18:43.547Z,4.20
2024-04-23T01:19:43.562Z,4.50
2024-04-23T01:20:43.515Z,4.20
2024-04-23T01:21:43.508Z,4.00
2024-04-23T01:22:43.537Z,4.10
2024-04-23T01:23:43.500Z,4.20
2024-04-23T01:24:43.472Z,4.00
2024-04-23T01:25:43.526Z,4.30
2024-04-23T01:26:43.457Z,5.10
2024-04-23T01:27:43.452Z,5.00
2024-04-23T01:28:43.489Z,4.60
2024-04-23T01:29:43.433Z,4.20
2024-04-23T01:30:43.408Z,4.60
2024-04-23T01:31:43.490Z,4.30
2024-04-23T01:32:43.470Z,4.20
2024-04-23T01:33:43.489Z,3.80
2024-04-23T01:34:43.417Z,4.20
2024-04-23T01:35:43.372Z,4.10
2024-04-23T01:36:43.367Z,4.30
2024-04-23T01:37:43.367Z,4.60
2024-04-23T01:38:43.344Z,4.50
2024-04-23T01:39:43.337Z,4.50
2024-04-23T01:40:43.345Z,4.80
2024-04-23T01:41:43.318Z,4.30
2024-04-23T01:42:43.301Z,4.50
2024-04-23T01:43:43.312Z,4.50
2024-04-23T01:44:43.285Z,5.20
2024-04-23T01:45:43.266Z,4.10
2024-04-23T01:46:43.301Z,4.20
2024-04-23T01:47:43.314Z,3.80
2024-04-23T01:48:43.241Z,4.00
2024-04-23T01:49:43.241Z,4.00
2024-04-23T01:50:43.237Z,4.20
2024-04-23T01:51:43.229Z,4.10
2024-04-23T01:52:43.236Z,4.50
2024-04-23T01:53:43.184Z,4.40
2024-04-23T01:54:43.174Z,3.40
2024-04-23T01:55:43.230Z,4.00
2024-04-23T01:56:43.161Z,3.90
2024-04-23T01:57:43.144Z,4.20
2024-04-23T01:58:43.201Z,4.30
2024-04-23T01:59:43.121Z,4.30
2024-04-23T02:00:43.131Z,4.70
2024-04-23T02:01:43.190Z,4.50
2024-04-23T02:02:43.129Z,4.50
2024-04-23T02:03:43.151Z,4.90
2024-04-23T02:04:43.098Z,4.70
2024-04-23T02:05:43.074Z,4.40
2024-04-23T02:06:43.057Z,4.30
2024-04-23T02:07:43.085Z,4.20
2024-04-23T02:08:43.026Z,4.50
2024-04-23T02:09:43.037Z,4.50
2024-04-23T02:10:43.077Z,4.70
2024-04-23T02:11:43.079Z,5.00
2024-04-23T02:12:42.995Z,5.00
2024-04-23T02:13:43.027Z,4.70
2024-04-23T02:14:42.985Z,4.50
2024-04-23T02:15:42.978Z,4.60
2024-04-23T02:16:42.950Z,4.90
2024-04-23T02:17:43.058Z,4.60
2024-04-23T02:18:42.974Z,4.70
2024-04-23T02:19:42.976Z,4.90
2024-04-23T02:20:42.922Z,5.00
2024-04-23T02:21:42.902Z,4.80
2024-04-23T02:22:42.946Z,4.50
2024-04-23T02:23:42.890Z,5.10
2024-04-23T02:24:42.888Z,5.00
2024-04-23T02:25:42.875Z,5.00
2024-04-23T02:26:42.864Z,4.70
2024-04-23T02:27:42.856Z,4.50
2024-04-23T02:28:42.866Z,4.30
2024-04-23T02:29:42.853Z,4.40
2024-04-23T02:30:42.820Z,4.40
2024-04-23T02:31:42.847Z,5.20
2024-04-23T02:32:42.908Z,4.40
2024-04-23T02:33:43.003Z,4.50
2024-04-23T02:34:42.840Z,4.30
2024-04-23T02:35:42.761Z,4.70
2024-04-23T02:36:42.756Z,5.10
2024-04-23T02:37:42.806Z,4.50
2024-04-23T02:38:42.785Z,4.70
2024-04-23T02:39:42.743Z,4.50
2024-04-23T02:40:42.742Z,4.90
2024-04-23T02:41:42.710Z,4.60
2024-04-23T02:42:42.707Z,4.60
2024-04-23T02:43:42.721Z,4.60
2024-04-23T02:44:42.678Z,4.50
2024-04-23T02:45:42.668Z,4.50
2024-04-23T02:46:42.696Z,4.50
2024-04-23T02:47:42.754Z,4.70
2024-04-23T02:48:42.648Z,4.80
2024-04-23T02:49:42.698Z,4.50
2024-04-23T02:50:42.618Z,5.10
2024-04-23T02:51:42.613Z,5.20
2024-04-23T02:52:42.640Z,5.20
2024-04-23T02:53:42.591Z,5.30
2024-04-23T02:54:42.583Z,6.00
2024-04-23T02:55:42.608Z,4.70
2024-04-23T02:56:42.572Z,4.90
2024-04-23T02:57:42.570Z,4.40
2024-04-23T02:58:42.555Z,4.70
2024-04-23T02:59:42.533Z,4.90
2024-04-23T03:00:42.535Z,4.60
2024-04-23T03:01:42.576Z,4.60
2024-04-23T03:02:42.613Z,5.00
2024-04-23T03:03:42.571Z,3.80
2024-04-23T03:04:42.519Z,4.40
2024-04-23T03:05:42.484Z,4.50
2024-04-23T03:06:42.474Z,4.90
2024-04-23T03:07:42.474Z,4.90
2024-04-23T03:08:42.448Z,4.90
2024-04-23T03:09:42.435Z,4.60
2024-04-23T03:10:42.538Z,5.20
2024-04-23T03:11:42.503Z,5.10
2024-04-23T03:12:42.414Z,4.60
2024-04-23T03:13:42.422Z,4.70
2024-04-23T03:14:42.381Z,4.70
2024-04-23T03:15:42.390Z,4.40
2024-04-23T03:16:42.401Z,4.80
2024-04-23T03:17:42.428Z,4.10
2024-04-23T03:18:42.407Z,4.90
2024-04-23T03:19:42.389Z,5.00
2024-04-23T03:20:42.344Z,4.90
2024-04-23T03:21:42.318Z,4.80
2024-04-23T03:22:42.325Z,5.40
2024-04-23T03:23:42.295Z,4.20
2024-04-23T03:24:42.312Z,3.90
2024-04-23T03:25:42.353Z,4.10
2024-04-23T03:26:42.279Z,4.10
2024-04-23T03:27:42.255Z,4.50
2024-04-23T03:28:42.298Z,4.40
2024-04-23T03:29:42.247Z,4.00
2024-04-23T03:30:42.236Z,4.10
2024-04-23T03:31:42.290Z,4.30
2024-04-23T03:32:42.215Z,5.10
2024-04-23T03:33:42.190Z,4.50
2024-04-23T03:34:42.226Z,4.30
2024-04-23T03:35:42.175Z,4.10
2024-04-23T03:36:42.160Z,4.60
2024-04-23T03:37:42.210Z,4.30
2024-04-23T03:38:42.144Z,4.70
2024-04-23T03:39:42.158Z,4.30
2024-04-23T03:40:42.136Z,4.40
2024-04-23T03:41:42.108Z,4.70
2024-04-23T03:42:42.107Z,4.60
2024-04-23T03:43:42.125Z,4.20
2024-04-23T03:44:44.833Z,4.40
2024-04-23T03:45:42.080Z,4.60
2024-04-23T03:46:42.077Z,4.60
2024-04-23T03:47:42.148Z,4.80
2024-04-23T03:48:42.049Z,4.90
2024-04-23T03:49:42.079Z,5.20
2024-04-23T03:50:42.062Z,5.00
2024-04-23T03:51:42.005Z,5.00
2024-04-23T03:52:42.062Z,5.20
2024-04-23T03:53:42.101Z,5.10
2024-04-23T03:54:42.232Z,4.70
2024-04-23T03:55:42.115Z,4.80
2024-04-23T03:56:41.993Z,4.90
2024-04-23T03:57:42.070Z,4.50
2024-04-23T03:58:42.023Z,4.60
2024-04-23T03:59:41.934Z,4.40
2024-04-23T04:00:41.950Z,4.30
2024-04-23T04:01:42.016Z,5.00
2024-04-23T04:02:42.000Z,4.70
2024-04-23T04:03:41.936Z,4.40
2024-04-23T04:04:41.912Z,4.40
2024-04-23T04:05:41.872Z,4.60
2024-04-23T04:06:41.894Z,4.40
2024-04-23T04:07:41.875Z,4.40
2024-04-23T04:08:41.854Z,4.50
2024-04-23T04:09:41.830Z,4.90
2024-04-23T04:10:41.868Z,4.90
2024-04-23T04:11:41.945Z,4.80
2024-04-23T04:12:41.822Z,4.60
2024-04-23T04:13:42.115Z,4.90
2024-04-23T04:14:41.783Z,5.10
2024-04-23T04:15:41.769Z,4.50
2024-04-23T04:16:41.866Z,4.80
2024-04-23T04:17:42.262Z,4.80
2024-04-23T04:18:41.787Z,4.80
2024-04-23T04:19:41.759Z,5.00
2024-04-23T04:20:41.729Z,4.90
2024-04-23T04:21:41.726Z,5.20
2024-04-23T04:22:41.757Z,5.60
2024-04-23T04:23:41.702Z,5.80
2024-04-23T04:24:41.699Z,5.40
2024-04-23T04:25:41.688Z,5.20
2024-04-23T04:26:41.714Z,5.30
2024-04-23T04:27:41.670Z,5.00
2024-04-23T04:28:41.657Z,5.80
2024-04-23T04:29:41.636Z,5.50
2024-04-23T04:30:41.628Z,5.40
2024-04-23T04:31:41.702Z,6.20
2024-04-23T04:32:41.717Z,5.80
2024-04-23T21:41:47.883Z,2.50
2024-04-23T21:42:47.868Z,3.10
2024-04-23T21:43:47.877Z,3.00
2024-04-23T21:44:47.845Z,3.20
2024-04-23T21:45:47.860Z,2.60
2024-04-23T21:46:47.843Z,2.90
2024-04-23T21:47:47.928Z,2.80
2024-04-23T21:48:47.889Z,2.70
2024-04-23T21:49:47.832Z,2.80
2024-04-23T21:50:47.791Z,2.90
2024-04-23T21:52:09.603Z,2.50
2024-04-23T21:52:48.769Z,3.10
2024-04-23T21:53:47.763Z,3.00
2024-04-23T21:54:47.753Z,3.30
2024-04-23T21:55:47.746Z,3.30
2024-04-23T21:56:47.713Z,3.30
2024-04-23T21:57:47.724Z,3.40
2024-04-23T21:58:47.731Z,3.00
2024-04-23T21:59:47.699Z,3.20
2024-04-23T22:00:47.731Z,3.20
2024-04-23T22:01:47.729Z,3.10
2024-04-23T22:02:47.763Z,3.10
2024-04-23T22:03:47.781Z,3.00
2024-04-23T22:04:47.667Z,2.90
2024-04-23T22:05:47.626Z,3.00
2024-04-23T22:06:47.614Z,2.90
2024-04-23T22:07:47.648Z,3.00
2024-04-23T22:08:48.721Z,2.80
2024-04-23T22:09:48.711Z,2.90
2024-04-23T22:10:48.751Z,2.90
2024-04-23T22:11:48.807Z,3.30
2024-04-23T22:12:48.688Z,3.30
2024-04-23T22:13:48.677Z,4.40
2024-04-23T22:14:48.655Z,3.40
2024-04-23T22:15:48.640Z,3.00
2024-04-23T22:16:48.711Z,3.10
2024-04-23T22:17:48.780Z,3.30
2024-04-23T22:18:48.710Z,3.00
2024-04-23T22:19:48.651Z,3.80
2024-04-23T22:20:48.593Z,3.50
2024-04-23T22:21:48.586Z,3.00
2024-04-23T22:22:48.609Z,2.80
2024-04-23T22:23:48.562Z,2.80
2024-04-23T22:24:48.553Z,3.00
2024-04-23T22:25:48.559Z,3.10
2024-04-23T22:26:48.530Z,2.90
2024-04-23T22:27:48.537Z,3.00
2024-04-23T22:28:48.563Z,3.30
2024-04-23T22:29:48.501Z,2.80
2024-04-23T22:30:48.498Z,2.90
2024-04-23T22:31:48.491Z,3.00
2024-04-23T22:32:49.511Z,3.30
2024-04-23T22:33:48.525Z,3.60
2024-04-23T22:34:48.493Z,3.90
2024-04-23T22:35:48.448Z,7.00
2024-04-23T22:36:48.442Z,8.40
2024-04-23T22:37:48.435Z,3.70
2024-04-23T22:38:49.414Z,3.30
2024-04-23T22:39:48.405Z,2.60
2024-04-23T22:40:48.438Z,2.50
2024-04-23T22:41:48.406Z,2.50
2024-04-23T22:42:48.369Z,2.50
2024-04-23T22:43:48.382Z,2.40
2024-04-23T22:44:48.349Z,2.80
2024-04-23T22:45:48.344Z,3.20
2024-04-23T22:46:48.349Z,3.60
2024-04-23T22:47:48.384Z,3.40
2024-04-23T22:48:48.442Z,3.70
2024-04-23T22:49:48.349Z,3.70
2024-04-23T22:50:48.305Z,4.40
2024-04-23T22:51:48.323Z,3.80
2024-04-23T22:52:48.296Z,4.00
2024-04-23T22:53:48.260Z,3.80
2024-04-23T22:54:48.246Z,4.30
2024-04-23T22:55:48.265Z,4.60
2024-04-23T22:56:48.241Z,4.40
2024-04-23T22:57:48.216Z,4.10
2024-04-23T22:58:48.220Z,4.00
2024-04-23T22:59:48.203Z,4.10
2024-04-23T23:00:48.191Z,3.90
2024-04-23T23:01:48.188Z,3.70
2024-04-23T23:02:48.286Z,4.20
2024-04-23T23:03:48.166Z,4.00
2024-04-23T23:04:48.185Z,3.80
2024-04-23T23:05:48.137Z,2.90
2024-04-23T23:06:48.154Z,3.20
2024-04-23T23:07:48.147Z,2.80
2024-04-23T23:08:48.110Z,3.30
2024-04-23T23:09:48.103Z,3.20
2024-04-23T23:10:48.189Z,3.00
2024-04-23T23:11:48.194Z,2.90
2024-04-23T23:12:48.061Z,2.70
2024-04-23T23:13:48.067Z,2.60
2024-04-23T23:14:48.050Z,2.80
2024-04-23T23:15:48.039Z,2.70
2024-04-23T23:16:48.086Z,2.80
2024-04-23T23:17:48.021Z,2.80
2024-04-23T23:18:47.996Z,2.60
2024-04-23T23:19:48.034Z,2.60
2024-04-23T23:20:47.991Z,3.00
2024-04-23T23:21:47.964Z,2.80
2024-04-23T23:22:50.093Z,2.80
2024-04-23T23:23:48.959Z,3.00
2024-04-23T23:24:47.980Z,2.90
2024-04-23T23:25:47.991Z,2.60
2024-04-23T23:26:47.920Z,3.10
2024-04-23T23:27:47.912Z,2.70
2024-04-23T23:28:47.919Z,3.10
2024-04-23T23:29:47.898Z,2.70
2024-04-23T23:30:47.876Z,2.60
2024-04-23T23:31:47.889Z,2.50
2024-04-23T23:32:47.977Z,2.70
2024-04-23T23:33:47.905Z,3.00
2024-04-23T23:34:47.883Z,2.80
2024-04-23T23:35:47.828Z,2.80
2024-04-23T23:36:47.818Z,3.20
2024-04-23T23:37:47.839Z,2.90
2024-04-23T23:38:47.816Z,3.30
2024-04-23T23:39:48.782Z,3.40
2024-04-23T23:40:47.836Z,4.00
2024-04-23T23:41:47.763Z,4.00
2024-04-23T23:42:47.772Z,4.80
2024-04-23T23:43:47.778Z,4.60
2024-04-23T23:44:47.733Z,4.20
2024-04-23T23:45:47.720Z,3.40
2024-04-23T23:46:47.794Z,3.30
2024-04-23T23:47:47.840Z,3.10
2024-04-23T23:48:47.733Z,3.10
2024-04-23T23:49:47.733Z,3.30
2024-04-23T23:50:47.687Z,2.90
2024-04-23T23:51:47.662Z,2.60
2024-04-23T23:52:47.685Z,2.80
2024-04-23T23:53:47.651Z,3.00
2024-04-23T23:54:47.654Z,2.80
2024-04-23T23:55:47.644Z,3.10
2024-04-23T23:56:47.617Z,3.10
2024-04-23T23:57:47.611Z,2.60
2024-04-23T23:58:47.631Z,2.60
2024-04-23T23:59:47.570Z,2.70
